Terminal Aerodrome Forecast
Issued by NWS Sterling, VA

Current Version | Previous Version | Graphics & Text | Print | Product List | Glossary On
Versions: 1 2 3 4 5 6 7 8 9 10 11 12 13
000
FTUS41 KLWX 241120
TAFMRB
TAF
KMRB 241120Z 2412/2512 09005KT P6SM OVC060
     FM250000 VRB03KT P6SM SCT040
     FM250700 VRB03KT P6SM BKN040=

USA.gov is the U.S. government's official web portal to all federal, state and local government web resources and services.